Time;durP1;ratioP1;P1;durP2;ratioP2;P2;SDS_P1;SDS_P2;PMS_P1;PMS_P2;Temp;Humidity;BMP_temperature;BMP_pressure;BME280_temperature;BME280_humidity;BME280_pressure;Samples;Min_cycle;Max_cycle;Signal;HPM_P1;HPM_P2
2022/04/26 03:37:13;;;;;;;5.83;4.37;;;11.20;75.10;;;;;;4995588;28;20231;-60
2022/04/26 03:39:39;;;;;;;4.73;4.17;;;11.20;75.30;;;;;;4994423;28;20342;-61
2022/04/26 03:42:06;;;;;;;5.10;4.67;;;11.30;75.30;;;;;;4993948;28;20200;-60
2022/04/26 03:44:31;;;;;;;6.17;4.67;;;11.30;75.00;;;;;;4994567;28;20275;-60
2022/04/26 03:46:57;;;;;;;4.57;4.17;;;11.30;75.30;;;;;;4978251;28;20323;-59
2022/04/26 03:49:24;;;;;;;5.20;4.70;;;11.30;75.20;;;;;;4978016;28;20283;-59
2022/04/26 03:51:53;;;;;;;5.70;5.20;;;11.30;75.20;;;;;;4994496;28;20206;-59
2022/04/26 03:54:23;;;;;;;5.20;4.70;;;11.30;74.90;;;;;;4998248;28;20192;-59
2022/04/26 03:56:49;;;;;;;5.27;4.77;;;11.30;74.80;;;;;;5013117;28;20195;-59
2022/04/26 03:59:16;;;;;;;5.07;4.63;;;11.20;75.10;;;;;;4997851;28;20196;-59
2022/04/26 04:01:42;;;;;;;4.57;4.17;;;11.20;75.70;;;;;;4980132;28;20275;-59
2022/04/26 04:04:07;;;;;;;6.27;5.67;;;11.20;76.10;;;;;;4989312;28;20197;-59
2022/04/26 04:06:33;;;;;;;6.77;6.10;;;11.30;75.80;;;;;;4971868;28;20203;-59
2022/04/26 04:08:59;;;;;;;6.37;5.77;;;11.30;74.80;;;;;;4984136;28;20184;-59
2022/04/26 04:11:25;;;;;;;6.17;5.57;;;11.30;75.20;;;;;;4966953;28;20196;-59
2022/04/26 04:13:51;;;;;;;6.90;5.87;;;11.20;75.10;;;;;;4968416;28;20211;-59
2022/04/26 04:16:17;;;;;;;7.63;5.57;;;11.20;73.70;;;;;;4975273;28;20216;-59
2022/04/26 04:21:27;;;;;;;6.70;6.00;;;11.30;73.10;;;;;;4992931;28;20199;-59
2022/04/26 04:23:53;;;;;;;9.90;5.57;;;11.20;72.90;;;;;;4972939;28;20192;-59
2022/04/26 04:26:19;;;;;;;7.07;6.37;;;11.20;73.40;;;;;;4977991;28;20240;-59
2022/04/26 04:28:44;;;;;;;7.80;7.00;;;11.20;72.90;;;;;;4976912;28;20206;-59
2022/04/26 04:31:10;;;;;;;6.87;6.27;;;11.30;72.60;;;;;;4977088;28;20227;-59
2022/04/26 04:33:37;;;;;;;5.90;5.30;;;11.20;72.90;;;;;;4976464;28;20260;-59
2022/04/26 04:36:04;;;;;;;7.00;6.40;;;11.20;73.20;;;;;;4975394;28;20254;-59
2022/04/26 04:38:30;;;;;;;7.37;6.57;;;11.30;72.70;;;;;;4997626;28;20184;-59
2022/04/26 04:40:56;;;;;;;8.20;6.40;;;11.20;71.70;;;;;;4977467;28;20204;-59
2022/04/26 04:43:21;;;;;;;8.20;7.37;;;11.20;72.30;;;;;;4971780;28;20243;-59
2022/04/26 04:45:47;;;;;;;7.97;7.17;;;11.30;71.70;;;;;;4966275;28;20263;-59
2022/04/26 04:48:13;;;;;;;7.50;6.20;;;11.10;73.40;;;;;;4989459;28;20192;-59
2022/04/26 04:50:39;;;;;;;6.80;6.10;;;11.10;72.70;;;;;;4953297;28;20212;-59
2022/04/26 04:53:05;;;;;;;8.53;6.70;;;11.10;73.80;;;;;;4992333;28;20197;-59
2022/04/26 04:55:31;;;;;;;7.47;6.30;;;11.10;74.80;;;;;;4961830;28;20213;-59
2022/04/26 04:57:57;;;;;;;7.77;6.90;;;11.00;75.70;;;;;;4965539;28;20199;-59
2022/04/26 05:00:23;;;;;;;7.63;6.83;;;11.00;75.20;;;;;;4963702;28;20196;-61
2022/04/26 05:02:49;;;;;;;7.27;6.57;;;11.00;77.60;;;;;;4971430;28;20193;-61
2022/04/26 05:05:15;;;;;;;9.07;7.20;;;10.90;76.20;;;;;;4966378;28;20200;-61
2022/04/26 05:07:40;;;;;;;7.53;6.63;;;10.90;76.60;;;;;;4973474;28;20197;-60
2022/04/26 05:10:07;;;;;;;7.77;7.07;;;10.80;77.60;;;;;;4960377;28;20193;-60
2022/04/26 05:12:34;;;;;;;9.17;6.70;;;10.80;77.80;;;;;;4983485;28;20193;-58
2022/04/26 05:15:00;;;;;;;10.93;7.47;;;10.80;78.00;;;;;;4972322;28;20217;-60
2022/04/26 05:17:30;;;;;;;7.43;6.23;;;10.80;77.50;;;;;;4971846;28;20204;-60
2022/04/26 05:19:55;;;;;;;8.63;7.67;;;10.80;77.60;;;;;;4962006;28;20200;-60
2022/04/26 05:22:22;;;;;;;7.97;6.53;;;10.80;77.30;;;;;;4978374;28;20193;-61
2022/04/26 05:24:54;;;;;;;8.07;7.27;;;10.80;76.60;;;;;;4981583;28;20268;-59
2022/04/26 05:27:31;;;;;;;9.13;8.20;;;10.80;74.40;;;;;;4991016;28;20193;-58
2022/04/26 05:29:57;;;;;;;8.60;7.53;;;10.80;74.40;;;;;;4993588;28;20217;-59
2022/04/26 05:32:25;;;;;;;9.17;7.27;;;10.90;74.70;;;;;;4984717;28;20244;-59
2022/04/26 05:35:01;;;;;;;8.10;6.97;;;11.10;74.50;;;;;;4991850;28;20235;-59
2022/04/26 05:37:33;;;;;;;9.20;8.30;;;10.90;74.70;;;;;;4990396;28;20184;-59
2022/04/26 05:40:02;;;;;;;10.60;8.67;;;11.00;76.00;;;;;;4975365;28;20189;-59
2022/04/26 05:42:31;;;;;;;10.07;8.97;;;11.00;77.20;;;;;;4981292;28;20192;-59
2022/04/26 05:44:57;;;;;;;9.77;8.27;;;10.80;76.60;;;;;;4995246;28;20192;-63
2022/04/26 05:47:23;;;;;;;9.97;8.97;;;10.80;76.60;;;;;;4962647;28;20215;-63
2022/04/26 05:49:49;;;;;;;9.77;8.17;;;10.70;77.00;;;;;;4979001;28;20192;-63
2022/04/26 05:52:14;;;;;;;9.50;8.50;;;10.70;76.80;;;;;;4978478;28;20252;-63
2022/04/26 05:54:40;;;;;;;9.13;8.23;;;10.70;76.20;;;;;;4978982;28;20208;-63
2022/04/26 05:57:06;;;;;;;13.23;9.30;;;10.70;77.00;;;;;;4958114;28;20257;-62
2022/04/26 05:59:32;;;;;;;9.80;8.70;;;10.70;76.80;;;;;;4959560;28;20276;-63
2022/04/26 06:01:58;;;;;;;9.63;8.60;;;10.60;75.40;;;;;;4962566;28;20225;-63
2022/04/26 06:04:26;;;;;;;11.53;8.73;;;10.70;77.30;;;;;;5003092;28;20192;-63
2022/04/26 06:06:52;;;;;;;10.33;9.27;;;10.70;76.70;;;;;;4997449;28;20188;-63
2022/04/26 06:09:19;;;;;;;9.80;8.23;;;10.80;77.50;;;;;;4965100;28;20243;-63
2022/04/26 06:11:44;;;;;;;9.47;8.40;;;10.90;77.00;;;;;;4964068;28;20205;-63
2022/04/26 06:14:10;;;;;;;8.90;8.00;;;10.90;77.50;;;;;;4959537;28;20196;-63
2022/04/26 06:16:36;;;;;;;12.97;8.10;;;11.00;77.10;;;;;;4958990;28;20232;-63
2022/04/26 06:19:02;;;;;;;9.20;8.23;;;11.00;76.70;;;;;;4942986;28;20189;-63
2022/04/26 06:21:28;;;;;;;10.00;8.10;;;11.10;76.20;;;;;;4975111;28;20189;-63
2022/04/26 06:23:53;;;;;;;9.73;8.00;;;11.20;75.50;;;;;;4959891;28;20201;-63
2022/04/26 06:26:19;;;;;;;10.03;7.60;;;11.30;75.40;;;;;;4980477;28;20239;-63
2022/04/26 06:28:45;;;;;;;8.30;7.07;;;11.30;75.00;;;;;;4981552;28;20195;-63
2022/04/26 06:31:11;;;;;;;10.63;8.70;;;11.40;75.70;;;;;;4997058;28;20207;-63
2022/04/26 06:33:37;;;;;;;8.87;7.97;;;11.40;75.60;;;;;;4975760;28;20204;-63
2022/04/26 06:36:03;;;;;;;8.37;7.07;;;11.30;74.00;;;;;;5014200;28;20203;-63
2022/04/26 06:38:29;;;;;;;11.33;8.70;;;11.50;74.90;;;;;;4991440;28;20200;-63
2022/04/26 06:40:55;;;;;;;10.73;8.83;;;11.50;75.10;;;;;;4977943;28;20189;-63
2022/04/26 06:43:20;;;;;;;11.23;8.93;;;11.70;73.50;;;;;;4973702;28;20204;-63
2022/04/26 06:45:46;;;;;;;9.50;8.57;;;11.70;72.60;;;;;;4958842;28;20263;-63
2022/04/26 06:48:14;;;;;;;7.33;6.20;;;11.80;72.40;;;;;;4978085;28;20189;-63
2022/04/26 06:50:40;;;;;;;8.37;7.40;;;11.70;73.00;;;;;;5013778;28;20246;-63
2022/04/26 06:53:07;;;;;;;10.00;9.00;;;11.80;72.50;;;;;;4988182;28;20193;-63
2022/04/26 06:55:33;;;;;;;9.47;8.30;;;11.80;72.10;;;;;;4977765;28;20220;-63
2022/04/26 06:57:59;;;;;;;14.40;9.77;;;11.70;73.10;;;;;;4971973;28;20203;-63
2022/04/26 07:00:25;;;;;;;10.80;8.80;;;11.70;74.00;;;;;;4977647;28;20193;-63
2022/04/26 07:02:51;;;;;;;9.33;8.20;;;11.80;73.40;;;;;;4992563;28;20192;-63
2022/04/26 07:05:16;;;;;;;10.70;9.30;;;11.90;73.50;;;;;;4965499;28;20197;-63
2022/04/26 07:07:42;;;;;;;9.90;8.83;;;12.00;69.10;;;;;;4958150;28;20212;-63
2022/04/26 07:10:10;;;;;;;13.27;9.57;;;11.90;70.40;;;;;;4958272;28;20201;-63
2022/04/26 07:12:36;;;;;;;10.23;9.10;;;12.00;70.20;;;;;;4958611;28;20228;-63
2022/04/26 07:15:03;;;;;;;9.87;8.87;;;12.30;67.90;;;;;;4958271;28;20213;-63
2022/04/26 07:17:28;;;;;;;11.20;10.00;;;12.30;67.70;;;;;;4949528;28;20200;-63
2022/04/26 07:19:54;;;;;;;11.50;9.17;;;12.30;69.00;;;;;;4963578;28;20201;-63
2022/04/26 07:22:20;;;;;;;10.83;9.23;;;12.30;69.60;;;;;;4993622;28;20202;-63
2022/04/26 07:24:45;;;;;;;7.50;6.63;;;12.10;67.90;;;;;;4975586;28;20311;-63
2022/04/26 07:27:11;;;;;;;11.00;8.60;;;12.30;69.70;;;;;;4960577;28;20211;-63
2022/04/26 07:29:41;;;;;;;12.70;8.73;;;12.50;67.30;;;;;;4976203;28;20196;-63
2022/04/26 07:32:07;;;;;;;10.13;8.30;;;12.50;66.50;;;;;;4978975;28;20213;-63
2022/04/26 07:34:33;;;;;;;10.03;7.83;;;12.50;67.10;;;;;;4976384;28;20220;-63
2022/04/26 07:37:01;;;;;;;12.87;9.27;;;12.50;66.30;;;;;;4976607;28;20230;-63
2022/04/26 07:39:28;;;;;;;9.17;8.10;;;12.60;66.90;;;;;;4992135;28;20206;-63
2022/04/26 07:41:54;;;;;;;13.67;9.17;;;12.50;67.00;;;;;;4977309;28;20193;-63
2022/04/26 07:44:21;;;;;;;10.43;9.00;;;12.60;66.80;;;;;;4992878;28;20191;-63
2022/04/26 07:46:48;;;;;;;9.43;8.50;;;12.80;65.40;;;;;;4992807;28;20196;-63
2022/04/26 07:49:15;;;;;;;11.00;8.63;;;12.80;65.70;;;;;;4992235;28;20206;-63
2022/04/26 07:51:42;;;;;;;11.20;8.67;;;12.90;65.00;;;;;;4976676;28;20192;-63
2022/04/26 07:54:11;;;;;;;9.23;7.90;;;12.80;66.20;;;;;;4964379;28;20212;-63
2022/04/26 07:56:37;;;;;;;11.23;8.07;;;12.90;64.10;;;;;;4960295;28;20247;-63
2022/04/26 07:59:04;;;;;;;9.87;7.30;;;12.90;64.90;;;;;;4957803;28;20253;-63
2022/04/26 08:01:31;;;;;;;13.20;8.23;;;12.90;64.30;;;;;;4970222;28;20196;-63
2022/04/26 08:03:57;;;;;;;9.90;8.87;;;13.10;65.30;;;;;;4991808;28;20204;-63
2022/04/26 08:06:24;;;;;;;13.40;8.77;;;13.20;63.90;;;;;;4996116;28;20191;-63
2022/04/26 08:08:49;;;;;;;9.80;8.80;;;12.90;64.10;;;;;;5012328;28;20275;-63
2022/04/26 08:11:15;;;;;;;9.80;8.00;;;13.20;65.30;;;;;;4992992;28;20268;-63
2022/04/26 08:13:42;;;;;;;10.13;8.83;;;13.20;63.50;;;;;;4992604;28;20194;-63
2022/04/26 08:16:09;;;;;;;10.43;8.43;;;13.30;63.20;;;;;;4975663;28;20216;-63
2022/04/26 08:18:36;;;;;;;12.30;9.20;;;13.40;62.80;;;;;;4992748;28;20188;-63
2022/04/26 08:21:03;;;;;;;9.20;7.37;;;13.30;64.50;;;;;;4974952;28;20255;-63
2022/04/26 08:23:30;;;;;;;9.83;8.47;;;13.50;63.20;;;;;;4976248;28;20191;-63
2022/04/26 08:29:01;;;;;;;9.10;8.13;;;13.50;62.50;;;;;;4960831;28;20201;-63
2022/04/26 08:31:28;;;;;;;11.43;8.10;;;13.50;62.30;;;;;;4955343;28;20197;-63
2022/04/26 08:33:53;;;;;;;9.67;7.57;;;13.50;62.10;;;;;;4962645;28;20286;-63
2022/04/26 08:36:19;;;;;;;9.67;8.17;;;13.80;62.70;;;;;;4988696;28;20232;-63
2022/04/26 08:38:45;;;;;;;15.50;8.80;;;13.90;61.00;;;;;;4957903;28;20268;-63
2022/04/26 08:41:14;;;;;;;9.23;8.23;;;13.80;62.80;;;;;;4968876;28;20279;-63
2022/04/26 08:43:40;;;;;;;8.23;7.40;;;14.20;60.70;;;;;;5001393;28;20188;-63
2022/04/26 08:46:06;;;;;;;9.63;7.53;;;14.30;61.10;;;;;;4975565;28;20204;-63
2022/04/26 08:51:15;;;;;;;10.37;8.17;;;14.20;60.50;;;;;;4979087;28;20192;-63
2022/04/26 08:53:44;;;;;;;10.93;8.73;;;14.30;60.50;;;;;;4988801;28;20206;-63
2022/04/26 08:56:10;;;;;;;9.50;8.50;;;14.30;59.90;;;;;;4941679;28;20228;-63
2022/04/26 08:58:36;;;;;;;10.90;9.83;;;14.20;60.70;;;;;;4990083;28;20193;-63
2022/04/26 09:01:06;;;;;;;10.70;7.33;;;14.20;60.30;;;;;;4975982;28;20193;-63
2022/04/26 09:03:37;;;;;;;9.40;8.33;;;14.40;59.30;;;;;;4992285;28;20216;-63
2022/04/26 09:06:07;;;;;;;10.00;7.73;;;14.20;59.70;;;;;;4991320;28;20196;-63
2022/04/26 09:08:34;;;;;;;10.93;8.63;;;14.20;61.90;;;;;;4992179;28;20192;-63
2022/04/26 09:11:00;;;;;;;8.27;7.23;;;14.20;61.10;;;;;;4975699;28;20220;-63
2022/04/26 09:13:26;;;;;;;10.17;8.97;;;14.40;61.00;;;;;;4976041;28;20196;-63
2022/04/26 09:15:54;;;;;;;9.87;8.47;;;14.50;59.50;;;;;;4985432;28;20209;-63
2022/04/26 09:18:38;;;;;;;8.77;7.87;;;14.50;60.70;;;;;;4981584;28;20193;-63
2022/04/26 09:21:07;;;;;;;9.37;8.43;;;14.50;58.20;;;;;;4963774;28;20205;-63
2022/04/26 09:23:33;;;;;;;8.67;7.60;;;14.50;57.30;;;;;;4979180;28;20264;-63
2022/04/26 09:26:12;;;;;;;8.40;7.40;;;14.40;58.80;;;;;;4975960;28;20239;-63
2022/04/26 09:28:41;;;;;;;11.27;9.50;;;14.30;59.30;;;;;;4991071;28;20200;-63
2022/04/26 09:31:23;;;;;;;9.97;8.97;;;14.20;58.40;;;;;;4995273;28;20220;-63
2022/04/26 09:33:56;;;;;;;11.03;9.40;;;14.00;59.80;;;;;;4978372;28;20254;-63
2022/04/26 09:36:24;;;;;;;6.80;6.20;;;14.00;59.90;;;;;;4979308;28;20235;-63
2022/04/26 09:38:51;;;;;;;10.70;8.77;;;14.10;60.50;;;;;;5010231;28;20230;-63
2022/04/26 09:41:17;;;;;;;11.97;8.20;;;14.10;60.30;;;;;;5014804;28;20198;-63
2022/04/26 09:43:43;;;;;;;9.17;8.03;;;14.20;59.80;;;;;;4998396;28;20195;-63
2022/04/26 09:46:09;;;;;;;9.17;8.20;;;14.00;60.00;;;;;;4981668;28;20199;-63
2022/04/26 09:48:36;;;;;;;11.57;9.60;;;14.20;60.60;;;;;;4982468;28;20206;-63
2022/04/26 09:51:06;;;;;;;9.67;7.80;;;14.40;61.30;;;;;;4998552;28;20193;-63
2022/04/26 09:53:32;;;;;;;8.40;6.60;;;14.50;59.90;;;;;;5012456;28;20191;-63
2022/04/26 09:56:00;;;;;;;9.07;7.03;;;14.70;57.70;;;;;;5014552;28;20266;-63
2022/04/26 09:58:28;;;;;;;7.80;7.00;;;14.80;58.10;;;;;;4993952;28;20250;-63
2022/04/26 10:00:56;;;;;;;6.93;6.23;;;14.90;58.20;;;;;;4993798;28;20196;-63
2022/04/26 10:03:35;;;;;;;7.90;7.10;;;15.00;57.90;;;;;;4994999;28;20185;-63
2022/04/26 10:06:06;;;;;;;8.10;6.13;;;15.00;55.70;;;;;;4993763;28;20287;-63
2022/04/26 10:08:37;;;;;;;9.13;7.27;;;15.00;58.20;;;;;;4978889;28;20189;-63
2022/04/26 10:11:04;;;;;;;7.07;6.37;;;15.20;56.70;;;;;;4979190;28;20247;-63
2022/04/26 10:13:36;;;;;;;7.10;6.40;;;15.20;55.70;;;;;;4994858;28;20189;-63
2022/04/26 10:16:08;;;;;;;7.47;6.77;;;15.30;54.80;;;;;;4993958;28;20308;-63
2022/04/26 10:18:38;;;;;;;8.40;7.50;;;15.30;55.00;;;;;;4994590;28;20185;-63
2022/04/26 10:21:06;;;;;;;9.03;7.20;;;15.30;53.70;;;;;;4994666;28;20232;-63
2022/04/26 10:23:56;;;;;;;9.50;7.13;;;15.40;52.60;;;;;;4994146;28;20181;-63
2022/04/26 10:26:24;;;;;;;8.50;7.70;;;15.30;53.40;;;;;;4988522;28;20243;-63
2022/04/26 10:29:02;;;;;;;9.37;8.40;;;15.10;54.50;;;;;;4977249;28;20190;-63
2022/04/26 10:31:40;;;;;;;7.97;7.17;;;14.90;54.30;;;;;;4999151;28;20271;-63
2022/04/26 10:34:20;;;;;;;9.00;7.90;;;14.70;55.90;;;;;;5014252;28;20271;-63
2022/04/26 10:36:55;;;;;;;10.53;7.80;;;14.70;56.30;;;;;;5013794;28;20306;-63
2022/04/26 10:39:27;;;;;;;8.43;7.57;;;14.70;55.40;;;;;;5000603;28;20184;-63
2022/04/26 10:41:53;;;;;;;8.83;7.93;;;14.80;55.80;;;;;;4993932;28;20213;-63
2022/04/26 10:44:22;;;;;;;7.43;6.63;;;15.00;56.60;;;;;;4997798;28;20186;-63
2022/04/26 10:47:07;;;;;;;7.00;6.30;;;14.90;56.10;;;;;;5013710;28;20187;-63
2022/04/26 10:49:37;;;;;;;8.07;6.27;;;15.00;55.20;;;;;;5006149;28;20184;-63
2022/04/26 10:52:19;;;;;;;9.47;7.70;;;15.30;54.80;;;;;;4993944;28;20191;-63
2022/04/26 10:57:21;;;;;;;8.07;7.00;;;15.30;55.70;;;;;;5005534;28;20241;-63
2022/04/26 11:00:11;;;;;;;10.70;8.37;;;15.00;55.60;;;;;;5013429;28;20191;-63
2022/04/26 11:02:39;;;;;;;8.77;7.87;;;15.10;56.70;;;;;;4993397;28;20210;-63
2022/04/26 11:05:11;;;;;;;8.63;7.83;;;15.00;55.70;;;;;;4976276;28;20239;-63
2022/04/26 11:07:41;;;;;;;8.00;6.77;;;15.00;56.00;;;;;;4993832;28;20185;-63
2022/04/26 11:10:08;;;;;;;8.30;7.23;;;15.00;55.90;;;;;;4993781;28;20193;-63
2022/04/26 11:12:37;;;;;;;10.37;8.30;;;14.90;56.10;;;;;;4978899;28;20200;-63
2022/04/26 11:15:11;;;;;;;8.93;8.13;;;15.10;56.20;;;;;;4979434;28;20216;-63
2022/04/26 11:17:37;;;;;;;8.60;7.67;;;14.80;56.80;;;;;;4995311;28;20184;-63
2022/04/26 11:20:16;;;;;;;8.70;7.57;;;14.80;57.10;;;;;;4979204;28;20216;-63
2022/04/26 11:22:56;;;;;;;6.80;6.10;;;14.70;58.60;;;;;;4969644;28;20291;-63
2022/04/26 11:28:13;;;;;;;6.63;5.90;;;14.90;59.30;;;;;;4986411;28;20191;-63
2022/04/26 11:30:38;;;;;;;6.73;6.03;;;15.00;60.10;;;;;;4994315;28;20219;-63
2022/04/26 11:33:11;;;;;;;9.50;8.60;;;15.10;60.00;;;;;;4994357;28;20196;-63
2022/04/26 11:35:38;;;;;;;9.43;8.27;;;15.10;57.90;;;;;;4995131;28;20209;-63
2022/04/26 11:38:11;;;;;;;8.37;7.27;;;15.00;58.80;;;;;;4994429;28;20176;-63
2022/04/26 11:40:41;;;;;;;9.03;8.13;;;15.00;58.80;;;;;;4994907;28;20184;-64
2022/04/26 11:43:12;;;;;;;6.83;6.20;;;15.10;58.80;;;;;;4994186;28;20188;-64
2022/04/26 11:45:40;;;;;;;9.47;8.57;;;15.10;59.60;;;;;;4994668;28;20184;-63
2022/04/26 11:48:11;;;;;;;9.13;8.23;;;15.20;59.70;;;;;;4966178;28;20263;-63
2022/04/26 11:50:38;;;;;;;7.57;6.83;;;15.20;58.60;;;;;;4993195;28;20204;-63
2022/04/26 11:53:16;;;;;;;8.33;7.53;;;15.10;58.30;;;;;;4971643;28;20197;-63
2022/04/26 11:55:43;;;;;;;8.30;7.13;;;15.10;59.80;;;;;;4976439;28;20239;-63
2022/04/26 11:58:10;;;;;;;9.10;8.30;;;15.10;59.40;;;;;;4994484;28;20219;-63
2022/04/26 12:00:48;;;;;;;6.40;5.70;;;15.20;60.10;;;;;;4993694;28;20188;-63
2022/04/26 12:03:14;;;;;;;8.07;7.27;;;15.30;59.80;;;;;;4977619;28;20200;-63
2022/04/26 12:05:40;;;;;;;9.70;8.80;;;15.30;58.10;;;;;;4960499;28;20200;-63
2022/04/26 12:08:16;;;;;;;9.87;7.30;;;15.30;58.50;;;;;;5000051;28;20188;-63
2022/04/26 12:10:42;;;;;;;9.73;8.63;;;15.10;59.30;;;;;;5002626;28;20179;-63
2022/04/26 12:13:08;;;;;;;8.93;8.03;;;15.20;57.80;;;;;;4968871;28;20192;-63
2022/04/26 12:15:36;;;;;;;10.17;8.67;;;15.20;58.60;;;;;;4965108;28;20585;-63
2022/04/26 12:18:07;;;;;;;9.77;8.80;;;15.10;57.60;;;;;;5001409;28;20183;-63
2022/04/26 12:20:35;;;;;;;10.00;8.10;;;15.00;58.20;;;;;;4994376;28;20180;-63
2022/04/26 12:23:02;;;;;;;9.67;8.63;;;15.10;58.40;;;;;;4974051;28;20197;-63
2022/04/26 12:25:27;;;;;;;10.30;8.97;;;15.10;58.00;;;;;;4985876;28;20232;-64
2022/04/26 12:28:07;;;;;;;9.17;8.23;;;15.00;58.20;;;;;;4977950;28;20204;-64
2022/04/26 12:30:37;;;;;;;8.03;7.07;;;14.80;58.50;;;;;;4993643;28;20192;-64
2022/04/26 12:33:04;;;;;;;8.10;7.27;;;14.80;58.40;;;;;;4977122;28;20287;-64
2022/04/26 12:35:30;;;;;;;6.73;6.03;;;14.80;58.80;;;;;;4992362;28;20220;-64
2022/04/26 12:38:07;;;;;;;13.43;9.70;;;15.00;59.00;;;;;;4992572;28;20196;-64
2022/04/26 12:40:34;;;;;;;7.23;6.50;;;15.00;60.20;;;;;;4976192;28;20196;-64
2022/04/26 12:43:00;;;;;;;7.67;6.97;;;15.10;59.10;;;;;;4993706;28;20175;-64
2022/04/26 12:45:26;;;;;;;6.40;5.80;;;15.10;58.90;;;;;;4975654;28;20188;-64
2022/04/26 12:51:22;;;;;;;9.03;7.90;;;15.10;57.80;;;;;;4977387;28;20339;-64
2022/04/26 12:53:52;;;;;;;9.90;8.43;;;15.30;56.60;;;;;;4988420;28;20212;-64
2022/04/26 12:56:19;;;;;;;9.87;8.87;;;15.40;55.80;;;;;;5000555;28;20211;-64
2022/04/26 12:58:47;;;;;;;9.33;8.43;;;15.30;56.00;;;;;;5016911;28;20211;-64
2022/04/26 13:01:13;;;;;;;9.60;8.67;;;15.30;57.30;;;;;;4999604;28;20192;-64
2022/04/26 13:03:40;;;;;;;7.70;7.00;;;15.40;56.70;;;;;;4997518;28;20184;-64
2022/04/26 13:06:12;;;;;;;9.90;8.90;;;15.30;58.20;;;;;;4992556;28;20223;-64
2022/04/26 13:08:39;;;;;;;9.40;8.50;;;15.30;56.00;;;;;;4996004;28;20417;-64
2022/04/26 13:11:06;;;;;;;10.80;9.40;;;15.30;58.60;;;;;;5007788;28;20196;-64
2022/04/26 13:13:34;;;;;;;10.73;9.67;;;15.40;57.70;;;;;;4983053;28;20202;-64
2022/04/26 13:16:00;;;;;;;8.73;7.83;;;15.40;58.10;;;;;;5014050;28;20243;-64
2022/04/26 13:18:26;;;;;;;10.63;8.63;;;15.60;57.90;;;;;;4998908;28;20180;-64
2022/04/26 13:20:54;;;;;;;8.97;8.07;;;15.80;55.60;;;;;;5014823;28;20555;-64
2022/04/26 13:23:21;;;;;;;9.73;8.60;;;15.80;56.00;;;;;;4999426;28;20219;-64
2022/04/26 13:25:46;;;;;;;10.80;9.70;;;16.10;54.10;;;;;;4997206;28;20271;-64
2022/04/26 13:28:12;;;;;;;8.83;8.00;;;16.00;54.80;;;;;;4982905;28;20238;-64
2022/04/26 13:30:38;;;;;;;8.60;7.70;;;16.00;53.30;;;;;;4979334;28;20184;-64
2022/04/26 13:33:04;;;;;;;9.53;8.63;;;15.90;54.20;;;;;;4970048;28;20200;-64
2022/04/26 13:35:30;;;;;;;10.27;9.17;;;15.90;56.30;;;;;;4975980;28;20269;-64
2022/04/26 13:37:58;;;;;;;10.57;8.97;;;16.20;53.10;;;;;;4959371;28;20236;-64
2022/04/26 13:40:24;;;;;;;9.93;8.70;;;15.70;53.30;;;;;;4961346;28;20192;-64
2022/04/26 13:42:51;;;;;;;10.17;9.17;;;15.70;55.00;;;;;;4975905;28;20195;-64
2022/04/26 13:45:17;;;;;;;9.93;9.03;;;15.70;54.30;;;;;;4959979;28;20190;-64
2022/04/26 13:47:45;;;;;;;8.80;8.00;;;15.40;55.20;;;;;;4986198;28;20194;-64
2022/04/26 13:50:12;;;;;;;10.13;9.13;;;15.50;56.50;;;;;;4976046;28;20193;-64
2022/04/26 13:52:40;;;;;;;9.70;8.70;;;15.60;56.40;;;;;;4971199;28;20200;-64
2022/04/26 13:55:07;;;;;;;9.73;8.73;;;15.60;56.20;;;;;;4995007;28;20291;-64
2022/04/26 13:57:33;;;;;;;9.50;8.60;;;15.60;57.20;;;;;;4977587;28;20284;-64
2022/04/26 13:59:59;;;;;;;9.67;8.77;;;15.60;57.20;;;;;;4995675;28;20187;-63
2022/04/26 14:02:25;;;;;;;9.73;8.73;;;15.50;56.20;;;;;;4979244;28;20183;-64
2022/04/26 14:04:51;;;;;;;8.73;7.93;;;15.60;57.80;;;;;;4996285;28;20272;-68
2022/04/26 14:07:17;;;;;;;10.37;9.37;;;15.50;57.50;;;;;;4979702;28;20191;-68
2022/04/26 14:09:44;;;;;;;7.27;6.50;;;15.40;56.60;;;;;;4979692;28;20196;-67
2022/04/26 14:12:11;;;;;;;10.37;9.37;;;15.40;58.00;;;;;;4979371;28;20196;-67
2022/04/26 14:22:52;;;;;;;9.97;8.97;;;15.20;65.80;;;;;;4977734;28;20228;-67
2022/04/26 14:25:18;;;;;;;12.23;10.23;;;15.00;67.10;;;;;;4978529;28;20245;-68
2022/04/26 14:27:47;;;;;;;9.77;8.77;;;14.70;69.50;;;;;;4995375;28;20199;-67
2022/04/26 14:30:14;;;;;;;11.37;9.27;;;14.50;70.50;;;;;;4976445;28;20272;-67
2022/04/26 14:32:40;;;;;;;10.33;9.33;;;14.30;72.90;;;;;;4982956;28;20200;-67
2022/04/26 14:35:06;;;;;;;11.63;8.97;;;14.00;74.30;;;;;;4995510;28;20275;-67
2022/04/26 14:37:33;;;;;;;9.10;8.20;;;13.90;74.30;;;;;;4979538;28;20291;-66
2022/04/26 14:39:59;;;;;;;8.00;7.20;;;13.80;75.20;;;;;;4975799;28;20226;-66
2022/04/26 14:42:28;;;;;;;9.67;8.67;;;13.80;75.80;;;;;;4986232;28;20220;-66
2022/04/26 14:44:54;;;;;;;9.47;8.57;;;13.70;76.80;;;;;;4998617;28;20271;-66
2022/04/26 14:47:19;;;;;;;7.97;7.17;;;13.70;75.00;;;;;;4984102;28;20220;-67
2022/04/26 14:49:46;;;;;;;10.33;9.33;;;13.60;75.00;;;;;;4994850;28;20250;-68
2022/04/26 14:52:15;;;;;;;9.97;8.97;;;13.60;75.30;;;;;;4954906;28;20204;-67
2022/04/26 14:54:41;;;;;;;10.87;9.77;;;13.50;75.20;;;;;;4989777;28;20189;-67
2022/04/26 14:57:07;;;;;;;9.93;8.93;;;13.40;77.30;;;;;;4978561;28;20224;-67
2022/04/26 14:59:33;;;;;;;11.47;9.60;;;13.30;76.70;;;;;;4972530;28;20201;-66
2022/04/26 15:01:59;;;;;;;10.60;9.50;;;13.30;78.80;;;;;;4960713;28;20250;-66
2022/04/26 15:04:25;;;;;;;9.80;8.90;;;13.10;80.40;;;;;;4995604;28;20189;-66
2022/04/26 15:06:51;;;;;;;13.80;12.17;;;12.90;83.10;;;;;;4978606;28;20288;-67
2022/04/26 15:17:31;;;;;;;17.07;14.00;;;12.40;88.00;;;;;;4990076;28;20207;-67
2022/04/26 15:19:57;;;;;;;16.00;14.07;;;12.40;88.60;;;;;;5001418;28;20192;-65
2022/04/26 15:22:24;;;;;;;18.97;16.17;;;12.40;89.60;;;;;;4995017;28;20175;-65
2022/04/26 15:24:51;;;;;;;14.10;12.67;;;12.40;89.80;;;;;;4994658;28;20282;-66
2022/04/26 15:27:18;;;;;;;17.07;15.27;;;12.40;89.90;;;;;;4978255;28;20197;-65
2022/04/26 15:29:44;;;;;;;19.27;16.97;;;12.40;89.60;;;;;;4995108;28;20168;-66
2022/04/26 15:32:10;;;;;;;16.97;15.17;;;12.40;90.30;;;;;;4994384;28;20311;-63
2022/04/26 15:34:37;;;;;;;19.60;16.83;;;12.40;90.60;;;;;;4978308;28;20188;-64
2022/04/26 15:37:04;;;;;;;14.00;12.57;;;12.40;90.50;;;;;;4978697;28;20274;-63
2022/04/26 15:39:30;;;;;;;16.33;14.73;;;12.40;90.60;;;;;;4994066;28;20190;-64
2022/04/26 15:41:57;;;;;;;21.00;18.80;;;12.40;90.50;;;;;;4978386;28;20275;-63
2022/04/26 15:44:23;;;;;;;20.50;18.43;;;12.30;90.60;;;;;;4977877;28;20189;-67
2022/04/26 15:46:52;;;;;;;19.73;17.63;;;12.30;91.10;;;;;;4994304;28;20188;-68
2022/04/26 15:49:22;;;;;;;24.03;20.90;;;12.30;90.70;;;;;;4994411;28;20199;-67
2022/04/26 15:51:48;;;;;;;22.07;17.93;;;12.30;91.10;;;;;;4977807;28;20196;-68
2022/04/26 15:54:15;;;;;;;18.87;16.97;;;12.30;91.10;;;;;;5004064;28;20191;-67
2022/04/26 15:56:42;;;;;;;20.07;16.90;;;12.30;91.20;;;;;;5005712;28;20215;-67
2022/04/26 15:59:09;;;;;;;22.77;20.23;;;12.30;91.40;;;;;;5013916;28;20176;-67
2022/04/26 16:01:36;;;;;;;18.80;16.87;;;12.20;91.70;;;;;;5000946;28;20188;-67
2022/04/26 16:04:02;;;;;;;23.80;21.30;;;12.20;91.60;;;;;;4994961;28;20180;-66
2022/04/26 16:06:27;;;;;;;21.57;19.27;;;12.20;91.20;;;;;;4991495;28;20201;-68
2022/04/26 16:20:28;;;;;;;20.47;18.07;;;12.10;91.40;;;;;;4958855;28;20196;-67
2022/04/26 16:22:44;;;;;;;22.90;18.70;;;11.90;90.60;;;;;;4964162;28;20196;-68
2022/04/26 16:25:09;;;;;;;22.50;19.03;;;11.80;90.70;;;;;;4993061;28;20291;-68
2022/04/26 16:27:35;;;;;;;30.57;24.53;;;11.80;91.10;;;;;;4972168;28;20259;-69
2022/04/26 16:30:01;;;;;;;25.37;20.53;;;11.80;91.30;;;;;;4957947;28;20192;-69
2022/04/26 16:32:30;;;;;;;28.23;24.03;;;11.80;91.60;;;;;;4958662;28;20185;-69
2022/04/26 16:34:59;;;;;;;24.37;21.73;;;11.90;91.70;;;;;;4990572;28;20188;-69
2022/04/26 16:37:24;;;;;;;24.17;21.53;;;11.80;91.90;;;;;;4994093;28;20184;-68
2022/04/26 16:39:50;;;;;;;32.87;24.80;;;11.90;92.40;;;;;;4980982;28;20192;-68
2022/04/26 16:42:16;;;;;;;40.80;30.57;;;11.90;92.30;;;;;;4999359;28;20180;-67
2022/04/26 16:44:42;;;;;;;39.50;28.50;;;11.90;92.40;;;;;;5001104;28;20214;-67
2022/04/26 16:47:10;;;;;;;49.37;35.07;;;11.90;92.00;;;;;;4993130;28;20188;-64
2022/04/26 16:49:36;;;;;;;46.07;32.93;;;11.80;92.40;;;;;;4998103;28;20191;-66
2022/04/26 16:52:02;;;;;;;47.50;32.97;;;11.90;92.40;;;;;;4993764;28;20227;-65
2022/04/26 16:54:28;;;;;;;38.03;28.00;;;11.80;92.20;;;;;;5002634;28;20184;-67
2022/04/26 16:56:54;;;;;;;29.60;23.17;;;11.80;91.90;;;;;;4993352;28;20216;-65
2022/04/26 16:59:20;;;;;;;33.90;25.93;;;11.80;91.90;;;;;;4983841;28;20191;-65
2022/04/26 17:01:48;;;;;;;28.67;22.43;;;11.80;91.90;;;;;;4985618;28;20211;-69
2022/04/26 17:04:14;;;;;;;29.60;24.20;;;11.80;91.80;;;;;;5009800;28;20193;-68